Time;durP1;ratioP1;P1;durP2;ratioP2;P2;SDS_P1;SDS_P2;PMS_P1;PMS_P2;Temp;Humidity;BMP_temperature;BMP_pressure;BME280_temperature;BME280_humidity;BME280_pressure;Samples;Min_cycle;Max_cycle;Signal;HPM_P1;HPM_P2
2020/12/01 00:01:25;;;;;;;34.20;16.10;;;;;;;0.08;61.15;97520.78;1715599;82;21160;-89
2020/12/01 00:03:56;;;;;;;30.82;13.90;;;;;;;0.03;61.25;97517.07;1718592;82;21102;-91
2020/12/01 00:06:32;;;;;;;31.00;16.50;;;;;;;-0.08;61.53;97523.97;1748398;82;21168;-91
2020/12/01 00:09:11;;;;;;;41.58;19.65;;;;;;;-0.21;61.71;97521.48;1782503;80;22795;-89
2020/12/01 00:11:41;;;;;;;27.13;13.53;;;;;;;-0.30;61.52;97524.41;1751282;82;21235;-90
2020/12/01 00:14:13;;;;;;;32.42;15.48;;;;;;;-0.42;61.40;97527.02;1710155;82;21149;-90
2020/12/01 00:16:55;;;;;;;43.52;20.15;;;;;;;-0.67;61.60;97533.58;1681894;80;21198;-89
2020/12/01 00:19:31;;;;;;;58.25;25.32;;;;;;;-0.74;61.81;97532.13;1751900;82;21098;-92
2020/12/01 00:22:07;;;;;;;35.63;14.25;;;;;;;-0.72;61.71;97537.23;1750827;82;21093;-91
2020/12/01 00:24:38;;;;;;;51.77;23.67;;;;;;;-0.77;61.74;97535.26;1782188;80;21082;-90
2020/12/01 00:27:15;;;;;;;30.37;14.93;;;;;;;-0.82;61.78;97542.75;1817575;79;21176;-88
2020/12/01 00:29:47;;;;;;;29.00;14.30;;;;;;;-0.96;61.75;97537.22;1818251;79;21081;-90
2020/12/01 00:32:20;;;;;;;29.70;12.55;;;;;;;-1.02;61.89;97541.77;1750811;82;21210;-89
2020/12/01 00:34:52;;;;;;;31.27;14.70;;;;;;;-1.09;61.75;97539.86;1783716;78;21625;-90
2020/12/01 00:37:26;;;;;;;24.45;14.28;;;;;;;-1.25;62.11;97540.84;1819662;79;21169;-88
2020/12/01 00:40:01;;;;;;;23.00;12.50;;;;;;;-1.33;62.33;97540.27;1817400;79;21145;-90
2020/12/01 00:42:34;;;;;;;18.67;10.15;;;;;;;-1.39;62.53;97541.77;1750100;82;21166;-91
2020/12/01 00:45:06;;;;;;;14.53;8.50;;;;;;;-1.41;62.59;97537.13;1780625;80;21145;-91
2020/12/01 00:47:39;;;;;;;15.70;8.75;;;;;;;-1.52;62.81;97533.61;1816902;79;21196;-90
2020/12/01 00:50:18;;;;;;;20.35;10.93;;;;;;;-1.55;62.84;97531.11;1750885;81;21646;-88
2020/12/01 00:52:55;;;;;;;15.80;9.35;;;;;;;-1.50;62.91;97534.83;1817041;79;21142;-89
2020/12/01 00:55:26;;;;;;;18.62;10.03;;;;;;;-1.47;62.69;97529.58;1749581;81;21057;-90
2020/12/01 00:58:03;;;;;;;16.12;8.80;;;;;;;-1.50;62.72;97522.77;1817192;79;21125;-89
2020/12/01 01:00:41;;;;;;;16.40;9.25;;;;;;;-1.49;62.62;97523.60;1750508;82;21236;-90
2020/12/01 01:03:18;;;;;;;16.77;8.58;;;;;;;-1.49;62.54;97527.48;1817120;79;21475;-89
2020/12/01 01:05:59;;;;;;;18.15;10.05;;;;;;;-1.49;62.46;97522.31;1817297;79;21093;-90
2020/12/01 01:08:30;;;;;;;20.50;10.77;;;;;;;-1.49;62.29;97524.89;1749647;82;21194;-90
2020/12/01 01:11:00;;;;;;;18.05;9.60;;;;;;;-1.49;62.12;97524.45;1781645;80;21169;-90
2020/12/01 01:13:31;;;;;;;14.63;8.23;;;;;;;-1.54;62.08;97517.33;1750578;82;21252;-90
2020/12/01 01:16:06;;;;;;;19.65;10.13;;;;;;;-1.60;61.98;97514.95;1781015;80;21141;-90
2020/12/01 01:18:36;;;;;;;16.05;9.20;;;;;;;-1.77;62.15;97516.80;1778804;79;21089;-90
2020/12/01 01:21:07;;;;;;;18.75;10.75;;;;;;;-1.87;62.54;97514.12;1818675;79;21077;-88
2020/12/01 01:23:39;;;;;;;17.52;10.28;;;;;;;-1.89;62.66;97512.89;1811162;79;21154;-90
2020/12/01 01:26:09;;;;;;;16.17;8.58;;;;;;;-1.92;62.75;97514.71;1742107;82;21437;-89
2020/12/01 01:28:38;;;;;;;15.65;8.70;;;;;;;-1.99;63.05;97513.23;1773089;81;21046;-90
2020/12/01 01:31:10;;;;;;;15.45;9.35;;;;;;;-2.00;63.16;97518.00;1741839;82;21044;-91
2020/12/01 01:33:39;;;;;;;16.42;9.85;;;;;;;-2.00;63.12;97515.42;1762819;79;21165;-89
2020/12/01 01:36:12;;;;;;;17.75;10.40;;;;;;;-1.98;63.03;97511.05;1757797;81;21066;-90
2020/12/01 01:38:41;;;;;;;18.10;10.80;;;;;;;-1.95;62.93;97512.25;1757735;81;21369;-88
2020/12/01 01:41:10;;;;;;;20.08;11.50;;;;;;;-1.93;62.86;97508.70;1757262;81;21213;-89
2020/12/01 01:43:41;;;;;;;23.77;12.15;;;;;;;-1.92;62.79;97503.94;1757272;81;21174;-88
2020/12/01 01:46:36;;;;;;;25.37;13.30;;;;;;;-1.97;62.78;97504.53;1752612;79;21326;-88
2020/12/01 01:49:18;;;;;;;22.73;12.23;;;;;;;-2.08;63.00;97505.32;1719893;78;21137;-89
2020/12/01 01:51:56;;;;;;;19.55;11.45;;;;;;;-2.17;63.33;97503.05;1683866;84;21369;-88
2020/12/01 01:54:29;;;;;;;17.52;9.28;;;;;;;-2.14;63.26;97504.23;1695833;84;21066;-90
2020/12/01 01:57:02;;;;;;;20.88;11.97;;;;;;;-2.07;63.09;97503.62;1652586;84;21150;-89
2020/12/01 01:59:35;;;;;;;19.12;9.43;;;;;;;-2.02;62.90;97499.96;1676839;84;21106;-90
2020/12/01 02:02:08;;;;;;;15.70;9.65;;;;;;;-2.04;62.66;97499.18;1684089;84;21126;-89
2020/12/01 02:04:50;;;;;;;16.87;9.55;;;;;;;-2.12;62.61;97502.91;1695125;84;21459;-89
2020/12/01 02:07:31;;;;;;;19.75;10.45;;;;;;;-2.19;62.84;97496.66;1695325;84;21148;-90
2020/12/01 02:10:00;;;;;;;17.30;9.68;;;;;;;-2.27;62.86;97499.07;1695834;84;21153;-89
2020/12/01 02:12:43;;;;;;;14.70;8.40;;;;;;;-2.36;63.15;97497.64;1696278;84;21145;-91
2020/12/01 02:15:43;;;;;;;14.53;8.23;;;;;;;-2.40;63.27;97499.06;1696442;84;21117;-89
2020/12/01 02:18:31;;;;;;;15.13;8.75;;;;;;;-2.43;63.43;97494.86;1696844;80;21082;-90
2020/12/01 02:21:39;;;;;;;16.95;8.48;;;;;;;-2.39;63.51;97495.14;1696627;84;21173;-90
2020/12/01 02:24:34;;;;;;;12.60;7.22;;;;;;;-2.37;63.49;97492.50;1697553;80;21090;-89
2020/12/01 02:27:08;;;;;;;16.30;8.23;;;;;;;-2.30;63.35;97497.45;1697161;83;21098;-88
2020/12/01 02:29:46;;;;;;;15.28;7.20;;;;;;;-2.25;63.13;97492.98;1696966;83;21027;-88
2020/12/01 02:32:26;;;;;;;15.65;7.65;;;;;;;-2.20;63.00;97489.79;1697772;80;25954;-88
2020/12/01 02:35:10;;;;;;;15.53;7.80;;;;;;;-2.19;62.74;97493.23;1697664;83;21197;-89
2020/12/01 02:37:43;;;;;;;13.72;8.28;;;;;;;-2.17;62.59;97496.60;1690433;80;20982;-89
2020/12/01 02:40:18;;;;;;;18.07;8.65;;;;;;;-2.16;62.46;97494.42;1686080;84;21145;-88
2020/12/01 02:42:54;;;;;;;13.30;7.22;;;;;;;-2.12;62.43;97497.75;1700845;78;21080;-88
2020/12/01 02:45:34;;;;;;;11.28;6.55;;;;;;;-2.16;62.20;97495.25;1702853;78;21415;-88
2020/12/01 02:48:04;;;;;;;13.13;6.53;;;;;;;-2.22;62.27;97489.00;1707398;78;21098;-91
2020/12/01 02:50:39;;;;;;;13.80;6.62;;;;;;;-2.25;62.31;97496.86;1678208;84;21142;-90
2020/12/01 02:53:20;;;;;;;12.93;6.87;;;;;;;-2.29;62.34;97496.55;1709932;83;21200;-90
2020/12/01 02:56:13;;;;;;;12.65;7.10;;;;;;;-2.29;62.40;97491.84;1733689;82;21006;-89
2020/12/01 02:58:57;;;;;;;12.85;6.97;;;;;;;-2.28;62.42;97491.78;1688300;81;21392;-90
2020/12/01 03:01:29;;;;;;;16.65;7.83;;;;;;;-2.26;62.37;97496.44;1708110;82;21127;-89
2020/12/01 03:04:07;;;;;;;13.62;7.65;;;;;;;-2.35;62.35;97490.29;1732805;76;21114;-89
2020/12/01 03:06:51;;;;;;;13.22;7.05;;;;;;;-2.38;62.36;97490.37;1720359;76;21107;-90
2020/12/01 03:09:28;;;;;;;12.85;6.95;;;;;;;-2.45;62.42;97491.02;1658288;84;21115;-88
2020/12/01 03:12:05;;;;;;;12.50;6.65;;;;;;;-2.49;62.51;97495.89;1705762;80;21873;-90
2020/12/01 03:14:34;;;;;;;;;;;;;;;-2.55;62.60;97495.20;1710619;80;21090;-90
2020/12/01 03:17:03;;;;;;;12.25;6.72;;;;;;;-2.68;62.65;97499.89;1707791;84;20241;-90
2020/12/01 03:19:56;;;;;;;15.75;7.28;;;;;;;-2.75;63.05;97490.21;1815059;79;28052;-90
2020/12/01 03:22:32;;;;;;;14.05;6.95;;;;;;;-2.77;63.15;97494.58;1756277;80;21133;-89
2020/12/01 03:25:07;;;;;;;17.52;6.60;;;;;;;-2.75;63.05;97503.55;1755084;80;21073;-90
2020/12/01 03:27:55;;;;;;;13.38;7.62;;;;;;;-2.75;63.16;97506.97;1685147;83;21158;-90
2020/12/01 03:30:29;;;;;;;12.10;6.90;;;;;;;-2.74;63.02;97501.36;1685419;83;21104;-90
2020/12/01 03:33:05;;;;;;;15.50;8.25;;;;;;;-2.75;62.99;97503.55;1732316;83;21170;-90
2020/12/01 03:35:42;;;;;;;15.80;8.08;;;;;;;-2.80;63.19;97497.68;1785184;80;21137;-91
2020/12/01 03:38:23;;;;;;;21.15;9.85;;;;;;;-2.84;63.33;97496.94;1784532;80;21881;-90
2020/12/01 03:41:04;;;;;;;21.25;9.48;;;;;;;-2.82;63.38;97495.60;1784777;79;21114;-90
2020/12/01 03:43:54;;;;;;;19.12;8.85;;;;;;;-2.81;63.21;97491.68;1784445;80;21157;-89
2020/12/01 03:46:30;;;;;;;12.13;6.92;;;;;;;-2.79;63.21;97496.34;1714474;83;21185;-89
2020/12/01 03:49:19;;;;;;;16.80;9.50;;;;;;;-2.91;63.22;97493.28;1714757;83;21042;-90
2020/12/01 03:51:55;;;;;;;16.87;9.78;;;;;;;-2.98;63.37;97490.88;1683917;84;21630;-91
2020/12/01 03:54:32;;;;;;;17.73;9.13;;;;;;;-2.92;63.46;97495.02;1714908;83;21177;-89
2020/12/01 04:01:13;;;;;;;15.85;7.28;;;;;;;-2.79;63.08;97494.20;1714618;83;21086;-90
2020/12/01 04:07:58;;;;;;;15.55;7.45;;;;;;;-2.68;62.46;97496.02;1744737;80;21082;-89
2020/12/01 04:10:43;;;;;;;21.23;9.23;;;;;;;-2.91;62.61;97492.83;1697455;81;21091;-90
2020/12/01 04:13:22;;;;;;;16.12;7.95;;;;;;;-3.04;63.10;97487.19;1701940;78;21130;-90
2020/12/01 04:16:22;;;;;;;16.30;8.83;;;;;;;-3.07;63.35;97498.89;1763087;81;21093;-88
2020/12/01 04:19:30;;;;;;;17.82;8.45;;;;;;;-3.14;63.67;97490.94;1765595;79;21160;-89
2020/12/01 04:22:30;;;;;;;14.90;7.55;;;;;;;-3.01;63.80;97490.98;1810938;77;28020;-91
2020/12/01 04:25:11;;;;;;;15.45;7.62;;;;;;;-2.99;63.76;97491.77;1736134;81;21173;-89
2020/12/01 04:27:57;;;;;;;14.70;8.03;;;;;;;-2.93;63.35;97493.33;1826203;78;21883;-89
2020/12/01 04:30:35;;;;;;;14.58;7.80;;;;;;;-2.88;63.13;97493.20;1794564;78;21105;-89
2020/12/01 04:33:10;;;;;;;15.95;8.68;;;;;;;-2.88;62.98;97485.03;1826887;78;21124;-90
2020/12/01 04:35:46;;;;;;;14.35;7.78;;;;;;;-2.88;62.87;97485.03;1768548;78;21562;-90
2020/12/01 04:38:15;;;;;;;16.10;9.28;;;;;;;-2.85;62.74;97484.08;1737683;78;21433;-89
2020/12/01 04:40:47;;;;;;;15.28;7.75;;;;;;;-2.96;62.81;97485.26;1629163;84;21381;-89
2020/12/01 04:43:38;;;;;;;15.35;8.70;;;;;;;-2.96;62.88;97494.28;1669113;86;21067;-90
2020/12/01 04:46:16;;;;;;;16.62;8.23;;;;;;;-3.00;62.97;97491.83;1669294;85;21153;-90
2020/12/01 04:49:30;;;;;;;16.97;9.48;;;;;;;-3.04;62.89;97496.21;1673072;85;21070;-90
2020/12/01 04:53:00;;;;;;;16.32;9.18;;;;;;;-3.23;63.45;97490.73;1669599;85;21181;-89
2020/12/01 04:56:24;;;;;;;;;;;;;;;;;;;;;
2020/12/01 04:59:13;;;;;;;18.40;9.90;;;;;;;-3.15;64.23;97485.81;1848249;77;28186;-91
2020/12/01 05:02:05;;;;;;;23.55;10.70;;;;;;;-3.17;64.25;97492.30;1793252;78;21123;-90
2020/12/01 05:05:24;;;;;;;22.67;11.53;;;;;;;-3.13;64.42;97496.94;1827584;78;21209;-89
2020/12/01 05:08:38;;;;;;;23.25;12.60;;;;;;;-3.11;64.37;97494.70;1797313;78;21327;-89
2020/12/01 05:12:04;;;;;;;22.55;12.70;;;;;;;-3.06;64.46;97495.42;1827092;78;21118;-89
2020/12/01 05:15:32;;;;;;;23.77;13.88;;;;;;;-3.01;64.60;97493.56;1827349;78;21051;-88
2020/12/01 05:18:28;;;;;;;29.32;15.35;;;;;;;-3.00;64.59;97496.98;1826968;78;21043;-89
2020/12/01 05:21:04;;;;;;;29.00;15.50;;;;;;;-3.07;64.72;97498.89;1825640;78;21496;-88
2020/12/01 05:23:40;;;;;;;36.95;17.67;;;;;;;-3.12;65.00;97502.03;1824978;78;21087;-89
2020/12/01 05:26:47;;;;;;;47.90;20.88;;;;;;;-3.22;65.24;97498.86;1827037;78;21032;-90
2020/12/01 05:29:47;;;;;;;48.20;25.80;;;;;;;-3.21;65.63;97497.12;1827258;76;21027;-90
2020/12/01 05:32:41;;;;;;;53.92;27.62;;;;;;;-3.15;65.80;97503.84;1826314;78;21194;-89
2020/12/01 05:35:27;;;;;;;47.60;27.15;;;;;;;-3.10;66.03;97496.83;1796981;78;21445;-89
2020/12/01 05:38:05;;;;;;;51.37;27.62;;;;;;;-3.04;65.86;97499.23;1826100;78;21127;-90
2020/12/01 05:40:34;;;;;;;49.55;26.50;;;;;;;-3.02;65.74;97499.61;1822672;78;21181;-89
2020/12/01 05:43:07;;;;;;;50.12;26.55;;;;;;;-3.07;65.84;97499.34;1825964;78;21761;-91
2020/12/01 05:45:43;;;;;;;41.53;23.42;;;;;;;-3.11;65.95;97504.16;1825467;78;21146;-90
2020/12/01 05:48:35;;;;;;;53.60;30.40;;;;;;;-3.12;65.96;97505.90;1825988;78;21198;-90
2020/12/01 05:51:12;;;;;;;64.87;35.78;;;;;;;-3.10;66.15;97509.71;1826265;78;21217;-91
2020/12/01 05:53:49;;;;;;;65.55;37.98;;;;;;;-3.08;66.00;97506.23;1826680;78;21166;-90
2020/12/01 05:56:21;;;;;;;79.72;42.15;;;;;;;-2.94;65.94;97507.55;1796094;78;21165;-89
2020/12/01 05:59:09;;;;;;;72.55;41.33;;;;;;;-2.73;65.56;97505.20;1822853;76;21082;-87
2020/12/01 06:01:53;;;;;;;73.75;40.45;;;;;;;-2.54;64.98;97507.23;1755110;76;21164;-89
2020/12/01 06:09:47;;;;;;;61.28;35.03;;;;;;;-2.30;63.89;97506.47;1810931;75;28231;-91
2020/12/01 06:29:48;;;;;;;63.65;39.15;;;;;;;-2.60;63.19;97521.15;1780909;79;21336;-89
2020/12/01 06:33:18;;;;;;;89.25;47.67;;;;;;;-2.62;63.03;97528.06;1758001;80;21125;-88
2020/12/01 06:39:31;;;;;;;;;;;;;;;;;;;;;
2020/12/01 06:42:29;;;;;;;227.43;86.15;;;;;;;-2.52;63.36;97525.63;1825361;77;28182;-88
2020/12/01 06:45:48;;;;;;;213.05;86.78;;;;;;;-2.49;63.47;97537.56;1761825;78;21038;-91
2020/12/01 07:02:04;;;;;;;43.75;22.20;;;;;;;-2.13;61.07;97517.97;1792297;77;27967;-88
2020/12/01 07:08:47;;;;;;;37.75;20.88;;;;;;;-2.10;60.59;97519.18;1683226;78;21272;-91
2020/12/01 07:11:40;;;;;;;30.20;17.82;;;;;;;-2.03;60.23;97520.67;1681378;84;21249;-93
2020/12/01 07:14:20;;;;;;;37.00;19.20;;;;;;;-2.02;60.20;97520.61;1704570;82;21103;-91
2020/12/01 07:17:37;;;;;;;33.78;19.75;;;;;;;-1.94;59.84;97516.52;1694407;82;21114;-92
2020/12/01 07:20:40;;;;;;;29.48;18.12;;;;;;;-1.96;59.66;97518.28;1705159;84;21164;-90
2020/12/01 07:24:16;;;;;;;33.48;17.87;;;;;;;-1.99;60.06;97511.94;1693640;84;21160;-91
2020/12/01 07:30:32;;;;;;;66.22;35.33;;;;;;;-1.38;59.90;97505.55;1802614;78;28274;-94
2020/12/01 07:33:42;;;;;;;;;;;;;;;;;;;;;
2020/12/01 07:36:58;;;;;;;;;;;;;;;;;;;;;
2020/12/01 07:40:00;;;;;;;84.72;37.53;;;;;;;-0.87;59.50;97499.87;1788261;78;21081;31
2020/12/01 07:42:44;;;;;;;235.93;68.40;;;;;;;-0.60;59.05;97515.63;1615599;87;21298;-89
2020/12/01 07:48:26;;;;;;;276.42;85.55;;;;;;;-0.08;58.33;97503.25;1780447;77;28070;-88
2020/12/01 07:51:08;;;;;;;167.93;54.58;;;;;;;0.05;58.07;97509.23;1696734;81;21133;-90
2020/12/01 07:53:42;;;;;;;134.12;50.65;;;;;;;0.10;58.26;97506.85;1690882;80;21685;-91
2020/12/01 07:56:17;;;;;;;137.15;51.20;;;;;;;0.19;58.22;97506.94;1717977;83;21062;-90
2020/12/01 07:59:14;;;;;;;106.35;45.48;;;;;;;0.23;58.03;97505.89;1717915;83;21193;-92
2020/12/01 08:02:11;;;;;;;69.77;32.80;;;;;;;0.22;58.43;97505.51;1710218;82;21185;-90
2020/12/01 08:05:37;;;;;;;62.13;31.17;;;;;;;0.18;58.86;97506.11;1688160;84;21161;-94
2020/12/01 08:08:47;;;;;;;58.95;30.82;;;;;;;0.19;59.33;97502.61;1685761;83;21187;-93
2020/12/01 08:14:23;;;;;;;55.23;29.10;;;;;;;0.41;59.62;97496.52;1800606;78;28961;-92
2020/12/01 08:17:15;;;;;;;54.27;27.85;;;;;;;0.47;59.77;97492.36;1801018;77;28735;-92
2020/12/01 08:19:55;;;;;;;38.65;20.70;;;;;;;0.47;59.95;97496.25;1797339;78;21877;-90
2020/12/01 08:22:36;;;;;;;33.48;19.10;;;;;;;0.53;59.99;97499.45;1799353;78;22171;-90
2020/12/01 08:25:59;;;;;;;;;;;;;;;;;;;;;
2020/12/01 08:29:30;;;;;;;33.10;18.23;;;;;;;0.53;59.87;97502.47;1736636;80;21178;-93
2020/12/01 08:32:44;;;;;;;31.00;18.80;;;;;;;0.73;59.31;97493.86;1830685;77;28228;-91
2020/12/01 08:35:48;;;;;;;32.35;17.62;;;;;;;0.75;58.80;97498.06;1819104;78;21240;-92
2020/12/01 08:38:26;;;;;;;31.45;17.27;;;;;;;0.77;58.82;97493.67;1810199;78;24289;-90
2020/12/01 08:51:59;;;;;;;23.30;13.78;;;;;;;1.19;58.36;97483.59;1765282;79;28281;-88
2020/12/01 08:54:36;;;;;;;28.02;15.50;;;;;;;1.18;57.88;97480.59;1698778;82;21111;-90
2020/12/01 08:57:24;;;;;;;30.12;17.37;;;;;;;1.05;57.80;97476.41;1834182;77;28105;-93
2020/12/01 09:00:09;;;;;;;33.58;17.80;;;;;;;0.97;58.35;97473.33;1780691;78;21188;-92
2020/12/01 09:03:20;;;;;;;31.90;19.07;;;;;;;1.00;58.65;97469.29;1785451;79;21245;-92
2020/12/01 09:06:34;;;;;;;32.03;17.85;;;;;;;1.07;59.34;97472.48;1768556;80;21165;-92
2020/12/01 09:09:28;;;;;;;35.30;20.57;;;;;;;1.14;59.49;97463.96;1690826;83;21172;-91
2020/12/01 09:15:15;;;;;;;31.77;17.60;;;;;;;1.21;59.84;97463.60;1811849;79;21151;-92
2020/12/01 10:35:58;;;;;;;40.40;21.95;;;;;;;0.70;63.71;97372.99;1806913;79;21117;-90
2020/12/01 10:38:29;;;;;;;43.35;22.73;;;;;;;0.78;63.75;97372.66;1813297;79;21402;-89
2020/12/01 10:41:01;;;;;;;46.92;23.85;;;;;;;0.79;63.64;97375.64;1793113;79;21110;-90
2020/12/01 10:43:34;;;;;;;39.20;22.00;;;;;;;0.78;63.72;97370.91;1789634;80;21061;-92
2020/12/01 11:06:31;;;;;;;45.65;23.67;;;;;;;0.46;64.73;97363.73;1652158;87;21127;-93
2020/12/01 11:09:06;;;;;;;48.10;24.10;;;;;;;0.49;64.88;97376.56;1649932;87;22252;-90
2020/12/01 11:11:43;;;;;;;46.68;25.00;;;;;;;0.57;65.11;97374.91;1640208;87;21158;-91
2020/12/01 11:14:17;;;;;;;49.48;24.67;;;;;;;0.74;64.84;97364.17;1650747;87;21115;-91
2020/12/01 11:16:53;;;;;;;53.73;26.95;;;;;;;0.90;64.26;97355.70;1635849;87;21086;-90
2020/12/01 11:20:08;;;;;;;57.03;28.17;;;;;;;1.01;64.29;97356.89;1654505;86;21214;-89
2020/12/01 11:22:39;;;;;;;54.55;26.25;;;;;;;1.21;63.80;97357.70;1630089;87;21138;-91
2020/12/01 11:25:09;;;;;;;117.40;52.33;;;;;;;1.28;63.22;97350.84;1634019;87;21181;-91
2020/12/01 11:27:49;;;;;;;68.45;34.27;;;;;;;1.21;63.04;97349.46;1651227;87;21226;-90
2020/12/01 11:30:22;;;;;;;60.75;33.18;;;;;;;1.11;63.30;97354.69;1647022;84;21098;-91
2020/12/01 11:33:00;;;;;;;84.92;43.48;;;;;;;1.03;63.58;97344.69;1635739;82;21130;-91
2020/12/01 11:56:33;;;;;;;52.55;27.95;;;;;;;0.24;66.68;97329.72;1794237;77;28105;-92
2020/12/01 11:59:19;;;;;;;53.40;28.73;;;;;;;0.20;66.99;97333.34;1793280;77;21122;-87
2020/12/01 12:01:58;;;;;;;45.98;26.77;;;;;;;0.21;67.20;97330.30;1806826;77;21173;-93
2020/12/01 12:04:41;;;;;;;52.75;26.90;;;;;;;0.24;67.26;97335.36;1794324;75;21263;-90
2020/12/01 12:07:39;;;;;;;54.23;29.05;;;;;;;0.24;67.26;97331.47;1849322;77;28002;-92
2020/12/01 12:10:18;;;;;;;50.55;27.77;;;;;;;0.11;67.47;97339.37;1825741;78;21197;-89
2020/12/01 12:13:30;;;;;;;53.73;29.07;;;;;;;0.12;67.63;97338.03;1826478;78;21633;-90
2020/12/01 12:16:01;;;;;;;56.37;31.17;;;;;;;0.13;67.98;97338.87;1821509;78;21125;-91
2020/12/01 12:18:32;;;;;;;57.80;26.97;;;;;;;0.18;67.95;97345.98;1823690;78;21622;-92
2020/12/01 12:21:13;;;;;;;55.73;30.10;;;;;;;0.24;67.98;97340.54;1826430;78;21125;-90
2020/12/01 12:24:44;;;;;;;51.65;27.73;;;;;;;0.29;67.75;97337.27;1733095;79;21071;-90
2020/12/01 12:31:06;;;;;;;53.58;29.23;;;;;;;0.33;67.95;97319.39;1826976;76;28146;-90
2020/12/01 12:33:42;;;;;;;54.73;29.63;;;;;;;0.38;67.85;97321.78;1764891;78;21124;-91
2020/12/01 12:36:27;;;;;;;52.40;28.55;;;;;;;0.34;67.62;97327.55;1786891;79;21370;-87
2020/12/01 12:39:00;;;;;;;54.83;29.18;;;;;;;0.22;67.68;97335.41;1757774;79;21577;-91
2020/12/01 12:41:48;;;;;;;53.08;27.22;;;;;;;0.15;67.92;97337.88;1786819;79;21602;-92
2020/12/01 12:44:22;;;;;;;56.20;29.12;;;;;;;0.11;68.10;97338.08;1725755;81;21058;-90
2020/12/01 12:46:58;;;;;;;55.48;28.73;;;;;;;0.06;68.47;97339.59;1736017;81;21111;-89
2020/12/01 12:49:36;;;;;;;54.10;28.98;;;;;;;0.05;68.49;97337.05;1716581;81;21235;-90
2020/12/01 12:52:08;;;;;;;50.40;28.00;;;;;;;0.02;68.43;97344.96;1744912;81;21244;-91
2020/12/01 12:54:50;;;;;;;55.85;28.90;;;;;;;-0.01;68.64;97336.40;1806429;77;28152;-91
2020/12/01 12:57:26;;;;;;;51.68;28.05;;;;;;;-0.07;68.71;97344.42;1799176;79;21125;-93
2020/12/01 13:00:08;;;;;;;44.53;24.35;;;;;;;-0.10;68.78;97345.88;1802606;78;21260;-89
2020/12/01 13:03:10;;;;;;;56.30;28.32;;;;;;;-0.19;69.00;97342.36;1822983;78;21172;-94
2020/12/01 13:06:15;;;;;;;52.05;28.60;;;;;;;-0.27;69.37;97350.45;1848309;77;28011;-91
2020/12/01 13:08:54;;;;;;;57.23;28.35;;;;;;;-0.34;69.44;97346.91;1825338;78;21139;-91
2020/12/01 13:11:35;;;;;;;58.75;29.48;;;;;;;-0.40;69.26;97350.58;1826487;78;21257;-93
2020/12/01 13:14:25;;;;;;;55.20;27.85;;;;;;;-0.48;69.79;97349.20;1822007;78;21186;-90
2020/12/01 13:17:00;;;;;;;53.05;28.12;;;;;;;-0.52;69.87;97345.91;1814163;78;21110;-92
2020/12/01 13:20:33;;;;;;;53.60;26.70;;;;;;;-0.58;70.43;97348.75;1792738;76;21138;31
2020/12/01 13:23:24;;;;;;;52.55;27.90;;;;;;;-0.66;70.37;97339.98;1673169;85;21245;-91
2020/12/01 13:26:37;;;;;;;;;;;;;;;-0.73;70.60;97350.19;1647201;85;21276;-92
2020/12/01 13:29:20;;;;;;;56.95;29.42;;;;;;;-0.70;70.66;97346.66;1640813;84;20229;-90
